Terminal Aerodrome Forecast
Issued by NWS

Home | Current Version | Previous Version | Text Only | Print | Product List | Glossary On
Versions: 1 2 3 4 5 6 7 8 9 10 11 12 13 14 15 16 17 18 19 20 21 22 23 24 25 26 27
000
FTUS45 KGJT 011736
TAFEGE
TAF
KEGE 011736Z 0118/0218 VRB04KT P6SM FEW120 SCT250
     FM012000 26008KT P6SM SCT110 BKN150
     FM012200 28008KT P6SM VCTS BKN100CB
     FM020300 08005KT P6SM SCT100 BKN200=

USA.gov is the U.S. government's official web portal to all federal, state and local government web resources and services.